Time;durP1;ratioP1;P1;durP2;ratioP2;P2;SDS_P1;SDS_P2;PMS_P1;PMS_P2;Temp;Humidity;BMP_temperature;BMP_pressure;BME280_temperature;BME280_humidity;BME280_pressure;Samples;Min_cycle;Max_cycle;Signal;HPM_P1;HPM_P2
2023/05/22 00:01:58;;;;;;;42.40;24.53;;;;;;;;;;5030247;28;20041;-69
2023/05/22 00:04:28;;;;;;;40.38;23.95;;;;;;;;;;5030110;28;20052;-69
2023/05/22 00:06:54;;;;;;;37.08;23.40;;;;;;;;;;5027304;28;20382;-69
2023/05/22 00:09:19;;;;;;;38.85;23.60;;;;;;;;;;5031644;28;20017;-69
2023/05/22 00:11:44;;;;;;;40.20;25.27;;;;;;;;;;5030167;28;20021;-69
2023/05/22 00:14:12;;;;;;;44.58;24.40;;;;;;;;;;5030033;28;20514;-69
2023/05/22 00:16:37;;;;;;;39.40;22.77;;;;;;;;;;5027397;28;20021;-69
2023/05/22 00:19:03;;;;;;;39.77;23.83;;;;;;;;;;5031162;28;20051;-69
2023/05/22 00:21:33;;;;;;;38.03;22.95;;;;;;;;;;5029191;28;20771;-69
2023/05/22 00:23:59;;;;;;;38.33;23.13;;;;;;;;;;5028776;28;20017;-69
2023/05/22 00:26:25;;;;;;;43.05;23.98;;;;;;;;;;5028400;28;20017;-69
2023/05/22 00:28:50;;;;;;;43.78;24.50;;;;;;;;;;5030366;28;20396;-69
2023/05/22 00:31:15;;;;;;;41.88;24.50;;;;;;;;;;5029751;28;20030;-69
2023/05/22 00:33:40;;;;;;;43.80;25.33;;;;;;;;;;5030171;28;20044;-69
2023/05/22 00:36:06;;;;;;;41.90;24.83;;;;;;;;;;5028438;28;20272;-69
2023/05/22 00:38:32;;;;;;;41.35;24.30;;;;;;;;;;5027791;28;20285;-69
2023/05/22 00:40:58;;;;;;;46.50;25.48;;;;;;;;;;5029380;28;20032;-69
2023/05/22 00:43:23;;;;;;;45.03;25.48;;;;;;;;;;5027392;28;20022;-69
2023/05/22 00:45:48;;;;;;;43.20;25.45;;;;;;;;;;5029603;28;20033;-69
2023/05/22 00:48:14;;;;;;;45.23;24.77;;;;;;;;;;5030318;28;20079;-69
2023/05/22 00:50:39;;;;;;;42.15;25.02;;;;;;;;;;5029119;28;20021;-69
2023/05/22 00:53:05;;;;;;;40.78;24.75;;;;;;;;;;5027749;28;20021;-69
2023/05/22 00:55:30;;;;;;;40.60;24.57;;;;;;;;;;5022642;28;20038;-69
2023/05/22 00:57:56;;;;;;;40.67;23.90;;;;;;;;;;5030393;28;20260;-69
2023/05/22 01:00:21;;;;;;;40.28;24.23;;;;;;;;;;5026505;28;20025;-69
2023/05/22 01:02:46;;;;;;;40.35;23.50;;;;;;;;;;5028839;28;20052;-69
2023/05/22 01:05:16;;;;;;;42.47;24.20;;;;;;;;;;5029233;28;20410;-69
2023/05/22 01:07:42;;;;;;;42.42;24.17;;;;;;;;;;5028296;28;20335;-69
2023/05/22 01:10:07;;;;;;;38.20;24.92;;;;;;;;;;5029227;28;20044;-69
2023/05/22 01:12:32;;;;;;;42.25;25.58;;;;;;;;;;5028702;28;20025;-69
2023/05/22 01:15:09;;;;;;;39.97;23.13;;;;;;;;;;5026361;28;20467;-69
2023/05/22 01:17:37;;;;;;;38.65;23.15;;;;;;;;;;5028919;28;20318;-69
2023/05/22 01:20:09;;;;;;;37.33;22.70;;;;;;;;;;5030436;28;20032;-70
2023/05/22 01:22:57;;;;;;;38.80;24.80;;;;;;;;;;5028388;28;20026;-69
2023/05/22 01:25:28;;;;;;;35.55;22.80;;;;;;;;;;5025904;28;20023;-69
2023/05/22 01:28:12;;;;;;;44.00;25.83;;;;;;;;;;5029794;28;20100;-69
2023/05/22 01:30:56;;;;;;;43.90;24.55;;;;;;;;;;5026887;28;20033;-69
2023/05/22 01:33:24;;;;;;;38.70;23.45;;;;;;;;;;5029887;28;20052;-69
2023/05/22 01:35:52;;;;;;;36.25;21.83;;;;;;;;;;5026487;28;20028;-69
2023/05/22 01:38:18;;;;;;;32.42;19.90;;;;;;;;;;5028882;28;20421;-69
2023/05/22 01:40:44;;;;;;;39.88;19.88;;;;;;;;;;5027076;28;20029;-69
2023/05/22 01:43:09;;;;;;;33.58;19.83;;;;;;;;;;5029786;28;20018;-69
2023/05/22 01:45:35;;;;;;;27.23;17.95;;;;;;;;;;5028145;28;20508;-69
2023/05/22 01:48:00;;;;;;;29.55;17.42;;;;;;;;;;5028410;28;20021;-69
2023/05/22 01:50:25;;;;;;;29.10;17.80;;;;;;;;;;5029337;28;20029;-69
2023/05/22 01:53:06;;;;;;;31.33;18.00;;;;;;;;;;5026284;28;20350;-69
2023/05/22 01:55:39;;;;;;;29.42;18.15;;;;;;;;;;5028731;28;20474;-69
2023/05/22 01:58:04;;;;;;;29.77;18.30;;;;;;;;;;5025533;28;20051;-69
2023/05/22 02:00:30;;;;;;;31.33;18.90;;;;;;;;;;5031551;28;20390;-69
2023/05/22 02:03:06;;;;;;;31.38;18.80;;;;;;;;;;5031220;28;20053;-69
2023/05/22 02:05:32;;;;;;;33.30;18.92;;;;;;;;;;5029430;28;20022;-69
2023/05/22 02:07:59;;;;;;;35.40;20.02;;;;;;;;;;5031692;28;20482;-69
2023/05/22 02:10:26;;;;;;;38.63;20.40;;;;;;;;;;5033401;28;20021;-69
2023/05/22 02:12:51;;;;;;;36.50;20.25;;;;;;;;;;5033999;28;20021;-69
2023/05/22 02:15:17;;;;;;;34.20;19.80;;;;;;;;;;5032904;28;20359;-69
2023/05/22 02:17:43;;;;;;;39.00;20.85;;;;;;;;;;5032044;28;20029;-69
2023/05/22 02:20:15;;;;;;;35.20;19.58;;;;;;;;;;5031029;28;20172;-69
2023/05/22 02:22:41;;;;;;;30.05;19.05;;;;;;;;;;5032576;28;20025;-69
2023/05/22 02:25:10;;;;;;;34.60;20.42;;;;;;;;;;5033306;28;20053;-69
2023/05/22 02:27:35;;;;;;;29.08;19.42;;;;;;;;;;5031465;28;20033;-69
2023/05/22 02:30:00;;;;;;;33.65;18.88;;;;;;;;;;5032330;28;20562;-69
2023/05/22 02:32:27;;;;;;;31.10;19.20;;;;;;;;;;5031985;28;20021;-69
2023/05/22 02:34:52;;;;;;;33.83;19.80;;;;;;;;;;5027548;28;20021;-69
2023/05/22 02:37:17;;;;;;;35.63;19.37;;;;;;;;;;5032821;28;20017;-69
2023/05/22 02:39:42;;;;;;;34.40;19.27;;;;;;;;;;5032549;28;20509;-69
2023/05/22 02:42:07;;;;;;;34.03;19.40;;;;;;;;;;5031267;28;20303;-69
2023/05/22 02:44:33;;;;;;;38.55;20.25;;;;;;;;;;5032140;28;20026;-69
2023/05/22 02:46:58;;;;;;;38.03;18.93;;;;;;;;;;5032864;28;20025;-69
2023/05/22 02:49:23;;;;;;;35.27;18.67;;;;;;;;;;5029620;28;20116;-69
2023/05/22 02:51:48;;;;;;;32.10;18.47;;;;;;;;;;5031619;28;20029;-69
2023/05/22 02:54:14;;;;;;;32.30;18.67;;;;;;;;;;5027091;28;20310;-69
2023/05/22 02:56:40;;;;;;;34.95;20.00;;;;;;;;;;5032123;28;20025;-69
2023/05/22 02:59:05;;;;;;;33.35;18.30;;;;;;;;;;5029511;28;20489;-69
2023/05/22 03:01:31;;;;;;;32.13;19.10;;;;;;;;;;5030271;28;20025;-69
2023/05/22 03:03:56;;;;;;;28.10;17.77;;;;;;;;;;5031066;28;20279;-69
2023/05/22 03:06:22;;;;;;;34.63;18.57;;;;;;;;;;5031095;28;20374;-69
2023/05/22 03:08:47;;;;;;;31.90;18.38;;;;;;;;;;5031342;28;20619;-69
2023/05/22 03:11:12;;;;;;;33.65;18.23;;;;;;;;;;5032505;28;20116;-69
2023/05/22 03:13:37;;;;;;;32.07;18.77;;;;;;;;;;5029791;28;20029;-69
2023/05/22 03:16:03;;;;;;;34.10;19.17;;;;;;;;;;5033627;28;20313;-69
2023/05/22 03:18:28;;;;;;;29.13;17.27;;;;;;;;;;5031195;28;20623;-69
2023/05/22 03:20:53;;;;;;;31.20;18.40;;;;;;;;;;5031368;28;20040;-69
2023/05/22 03:23:21;;;;;;;30.70;18.60;;;;;;;;;;5031207;28;20272;-69
2023/05/22 03:25:46;;;;;;;33.72;18.50;;;;;;;;;;5032000;28;20271;-69
2023/05/22 03:28:12;;;;;;;31.85;19.45;;;;;;;;;;5029093;28;20025;-69
2023/05/22 03:30:37;;;;;;;27.15;17.02;;;;;;;;;;5030195;28;20506;-69
2023/05/22 03:33:02;;;;;;;29.67;17.97;;;;;;;;;;5029905;28;20014;-69
2023/05/22 03:35:27;;;;;;;29.93;18.77;;;;;;;;;;5033890;28;20338;-69
2023/05/22 03:37:52;;;;;;;27.13;16.58;;;;;;;;;;5029937;28;20282;-69
2023/05/22 03:40:17;;;;;;;31.30;17.87;;;;;;;;;;5031014;28;20017;-69
2023/05/22 03:42:43;;;;;;;30.07;17.63;;;;;;;;;;5030193;28;20924;-69
2023/05/22 03:45:08;;;;;;;26.83;16.80;;;;;;;;;;5031253;28;20304;-69
2023/05/22 03:47:33;;;;;;;30.15;17.52;;;;;;;;;;5026245;28;20045;-69
2023/05/22 03:49:58;;;;;;;30.02;17.27;;;;;;;;;;5030661;28;20036;-69
2023/05/22 03:52:24;;;;;;;27.43;17.50;;;;;;;;;;5026152;28;20022;-69
2023/05/22 03:54:49;;;;;;;29.75;17.92;;;;;;;;;;5024124;28;20271;-69
2023/05/22 03:57:15;;;;;;;27.95;16.60;;;;;;;;;;5029981;28;20021;-69
2023/05/22 03:59:40;;;;;;;31.13;17.98;;;;;;;;;;5030012;28;20628;-69
2023/05/22 04:02:05;;;;;;;28.87;16.93;;;;;;;;;;5028298;28;20026;-69
2023/05/22 04:04:32;;;;;;;33.85;17.67;;;;;;;;;;5029019;28;20375;-69
2023/05/22 04:06:58;;;;;;;31.65;18.40;;;;;;;;;;5031567;28;20032;-69
2023/05/22 04:09:25;;;;;;;31.08;16.38;;;;;;;;;;5030958;28;20021;-69
2023/05/22 04:11:52;;;;;;;31.38;17.73;;;;;;;;;;5030887;28;20025;-69
2023/05/22 04:14:17;;;;;;;26.55;16.45;;;;;;;;;;5028580;28;20167;-69
2023/05/22 04:16:42;;;;;;;30.17;16.98;;;;;;;;;;5027555;28;20104;-69
2023/05/22 04:19:08;;;;;;;29.43;17.03;;;;;;;;;;5028827;28;20029;-69
2023/05/22 04:21:34;;;;;;;29.90;17.92;;;;;;;;;;5031036;28;20342;-69
2023/05/22 04:24:05;;;;;;;29.90;17.05;;;;;;;;;;5029929;28;20029;-69
2023/05/22 04:26:31;;;;;;;26.05;15.73;;;;;;;;;;5029798;28;20029;-69
2023/05/22 04:28:56;;;;;;;29.83;17.30;;;;;;;;;;5029177;28;20021;-69
2023/05/22 04:31:23;;;;;;;28.97;17.57;;;;;;;;;;5028379;28;20505;-69
2023/05/22 04:33:48;;;;;;;31.67;18.35;;;;;;;;;;5029873;28;20404;-69
2023/05/22 04:36:13;;;;;;;29.60;17.65;;;;;;;;;;5030284;28;20025;-69
2023/05/22 04:38:40;;;;;;;26.23;16.30;;;;;;;;;;5030290;28;20029;-69
2023/05/22 04:41:07;;;;;;;33.72;19.15;;;;;;;;;;5031601;28;20325;-69
2023/05/22 04:43:32;;;;;;;27.75;16.67;;;;;;;;;;5030531;28;20029;-69
2023/05/22 04:45:57;;;;;;;33.45;18.38;;;;;;;;;;5029486;28;20037;-69
2023/05/22 04:48:22;;;;;;;28.03;17.63;;;;;;;;;;5027370;28;20097;-69
2023/05/22 04:50:48;;;;;;;28.17;17.27;;;;;;;;;;5030592;28;20025;-69
2023/05/22 04:53:13;;;;;;;28.17;16.23;;;;;;;;;;5027425;28;20287;-69
2023/05/22 04:55:39;;;;;;;27.40;16.60;;;;;;;;;;5028807;28;20025;-69
2023/05/22 04:58:04;;;;;;;27.93;17.30;;;;;;;;;;5030622;28;20025;-69
2023/05/22 05:00:30;;;;;;;25.95;15.93;;;;;;;;;;5028540;28;20264;-69
2023/05/22 05:02:56;;;;;;;26.38;16.70;;;;;;;;;;5030058;28;20029;-69
2023/05/22 05:05:21;;;;;;;29.63;17.55;;;;;;;;;;5028178;28;20041;-69
2023/05/22 05:07:47;;;;;;;31.58;17.85;;;;;;;;;;5028255;28;20025;-69
2023/05/22 05:10:12;;;;;;;30.98;18.23;;;;;;;;;;5028549;28;20022;-69
2023/05/22 05:12:37;;;;;;;32.97;19.20;;;;;;;;;;5028080;28;20022;-69
2023/05/22 05:15:03;;;;;;;33.47;18.70;;;;;;;;;;5026069;28;20833;-69
2023/05/22 05:17:28;;;;;;;31.05;19.33;;;;;;;;;;5029082;28;20334;-69
2023/05/22 05:19:54;;;;;;;36.57;20.67;;;;;;;;;;5030072;28;20021;-69
2023/05/22 05:22:19;;;;;;;32.95;19.13;;;;;;;;;;5025271;28;20279;-69
2023/05/22 05:24:44;;;;;;;40.67;21.57;;;;;;;;;;5029697;28;20033;-69
2023/05/22 05:27:09;;;;;;;36.70;19.52;;;;;;;;;;5028158;28;20022;-69
2023/05/22 05:29:34;;;;;;;34.33;21.23;;;;;;;;;;5021399;28;20056;-69
2023/05/22 05:32:00;;;;;;;42.58;22.60;;;;;;;;;;5024741;28;20648;-69
2023/05/22 05:34:25;;;;;;;45.08;21.30;;;;;;;;;;5027322;28;20096;-69
2023/05/22 05:36:51;;;;;;;42.45;22.58;;;;;;;;;;5023863;28;20045;-69
2023/05/22 05:39:16;;;;;;;38.58;23.42;;;;;;;;;;5025495;28;20075;-69
2023/05/22 05:41:41;;;;;;;41.53;20.73;;;;;;;;;;5026046;28;20045;-69
2023/05/22 05:44:06;;;;;;;33.63;20.53;;;;;;;;;;5022198;28;20284;-69
2023/05/22 05:46:32;;;;;;;35.88;19.58;;;;;;;;;;5024061;28;20661;-69
2023/05/22 05:48:57;;;;;;;36.05;20.90;;;;;;;;;;5022159;28;20620;-69
2023/05/22 05:51:22;;;;;;;45.10;22.30;;;;;;;;;;5021599;28;20025;-69
2023/05/22 05:53:48;;;;;;;41.33;23.38;;;;;;;;;;5026269;28;20719;-69
2023/05/22 05:56:13;;;;;;;38.40;22.20;;;;;;;;;;5026826;28;20021;-69
2023/05/22 05:58:39;;;;;;;50.95;22.95;;;;;;;;;;5024761;28;20112;-69
2023/05/22 06:01:04;;;;;;;43.90;23.75;;;;;;;;;;5024082;28;20017;-69
2023/05/22 06:03:29;;;;;;;48.83;25.13;;;;;;;;;;5024776;28;20082;-69
2023/05/22 06:05:56;;;;;;;51.00;23.08;;;;;;;;;;5025035;28;20374;-69
2023/05/22 06:08:21;;;;;;;50.65;22.92;;;;;;;;;;5031338;28;20022;-70
2023/05/22 06:10:47;;;;;;;39.78;22.95;;;;;;;;;;5028689;28;20071;-69
2023/05/22 06:13:12;;;;;;;49.30;26.65;;;;;;;;;;5028640;28;20040;-69
2023/05/22 06:15:37;;;;;;;48.20;26.10;;;;;;;;;;5029336;28;20040;-69
2023/05/22 06:18:03;;;;;;;51.58;27.77;;;;;;;;;;5026403;28;20264;-69
2023/05/22 06:20:29;;;;;;;52.05;27.02;;;;;;;;;;5023703;28;20041;-69
2023/05/22 06:22:54;;;;;;;49.17;28.10;;;;;;;;;;5024965;28;20478;-69
2023/05/22 06:25:19;;;;;;;55.25;31.65;;;;;;;;;;5029343;28;20013;-69
2023/05/22 06:27:44;;;;;;;58.60;32.07;;;;;;;;;;5026438;28;20032;-69
2023/05/22 06:30:10;;;;;;;70.40;34.40;;;;;;;;;;5024293;28;20284;-69
2023/05/22 06:32:36;;;;;;;76.75;35.63;;;;;;;;;;5024859;28;20322;-69
2023/05/22 06:35:01;;;;;;;68.00;33.33;;;;;;;;;;5025808;28;20025;-69
2023/05/22 06:37:27;;;;;;;77.63;36.03;;;;;;;;;;5028314;28;20753;-69
2023/05/22 06:39:52;;;;;;;74.60;37.83;;;;;;;;;;5025356;28;20317;-69
2023/05/22 06:42:17;;;;;;;92.10;38.10;;;;;;;;;;5029835;28;20053;-69
2023/05/22 06:44:42;;;;;;;85.37;39.17;;;;;;;;;;5030101;28;20029;-69
2023/05/22 06:47:07;;;;;;;107.60;43.23;;;;;;;;;;5028467;28;20264;-69
2023/05/22 06:49:32;;;;;;;80.43;38.80;;;;;;;;;;5028055;28;20029;-69
2023/05/22 06:51:58;;;;;;;86.70;41.20;;;;;;;;;;5034277;28;20284;-68
2023/05/22 06:54:23;;;;;;;89.40;40.40;;;;;;;;;;5034630;28;20294;-68
2023/05/22 06:56:48;;;;;;;83.10;39.93;;;;;;;;;;5025144;28;20696;-68
2023/05/22 06:59:13;;;;;;;83.80;40.72;;;;;;;;;;5034151;28;20370;-68
2023/05/22 07:01:38;;;;;;;94.13;40.63;;;;;;;;;;5029954;28;20056;-68
2023/05/22 07:04:04;;;;;;;92.05;39.50;;;;;;;;;;5032432;28;20422;-68
2023/05/22 07:06:37;;;;;;;85.80;40.53;;;;;;;;;;5030097;28;20024;-68
2023/05/22 07:09:03;;;;;;;88.90;40.40;;;;;;;;;;5031479;28;20138;-68
2023/05/22 07:11:28;;;;;;;87.10;43.28;;;;;;;;;;5032373;28;20022;-68
2023/05/22 07:13:54;;;;;;;90.43;41.50;;;;;;;;;;5031796;28;20463;-69
2023/05/22 07:16:19;;;;;;;101.03;43.13;;;;;;;;;;5032776;28;20072;-69
2023/05/22 07:18:44;;;;;;;87.13;41.65;;;;;;;;;;5032278;28;20351;-69
2023/05/22 07:21:10;;;;;;;77.05;39.72;;;;;;;;;;5026834;28;20079;-69
2023/05/22 07:23:35;;;;;;;93.15;42.15;;;;;;;;;;5030785;28;20021;-69
2023/05/22 07:26:00;;;;;;;90.50;44.03;;;;;;;;;;5031761;28;20501;-69
2023/05/22 07:28:25;;;;;;;90.50;42.05;;;;;;;;;;5028347;28;20284;-69
2023/05/22 07:30:51;;;;;;;95.60;42.97;;;;;;;;;;5029589;28;20053;-69
2023/05/22 07:33:16;;;;;;;109.17;44.70;;;;;;;;;;5025045;28;20287;-69
2023/05/22 07:35:41;;;;;;;100.67;44.80;;;;;;;;;;5027842;28;20272;-69
2023/05/22 07:38:06;;;;;;;108.07;47.27;;;;;;;;;;5031382;28;20064;-69
2023/05/22 07:40:31;;;;;;;103.67;44.90;;;;;;;;;;5028892;28;20494;-69
2023/05/22 07:42:56;;;;;;;108.53;45.87;;;;;;;;;;5029818;28;20291;-69
2023/05/22 07:45:22;;;;;;;104.30;45.80;;;;;;;;;;5030998;28;20273;-70
2023/05/22 07:47:47;;;;;;;93.47;44.90;;;;;;;;;;5031707;28;20385;-69
2023/05/22 07:50:12;;;;;;;105.97;46.00;;;;;;;;;;5031288;28;20350;-69
2023/05/22 07:52:37;;;;;;;112.13;50.50;;;;;;;;;;5030999;28;20619;-69
2023/05/22 07:55:02;;;;;;;112.37;49.27;;;;;;;;;;5029531;28;20279;-69
2023/05/22 07:57:31;;;;;;;111.32;46.45;;;;;;;;;;5031582;28;20283;-69
2023/05/22 07:59:58;;;;;;;112.00;49.05;;;;;;;;;;5029003;28;20022;-69
2023/05/22 08:02:23;;;;;;;101.30;44.20;;;;;;;;;;5029602;28;20036;-69
2023/05/22 08:04:49;;;;;;;101.33;44.83;;;;;;;;;;5030080;28;20021;-69
2023/05/22 08:07:14;;;;;;;102.53;46.95;;;;;;;;;;5032441;28;20026;-69
2023/05/22 08:09:39;;;;;;;101.30;44.80;;;;;;;;;;5030469;28;20030;-69
2023/05/22 08:12:05;;;;;;;96.43;42.42;;;;;;;;;;5031413;28;20017;-69
2023/05/22 08:14:30;;;;;;;93.63;42.70;;;;;;;;;;5026487;28;20398;-69
2023/05/22 08:16:57;;;;;;;106.13;46.45;;;;;;;;;;5030632;28;20071;-69
2023/05/22 08:19:22;;;;;;;97.35;44.00;;;;;;;;;;5028281;28;20029;-69
2023/05/22 08:21:48;;;;;;;92.90;43.93;;;;;;;;;;5028629;28;20101;-69
2023/05/22 08:24:13;;;;;;;101.57;47.60;;;;;;;;;;5031107;28;20625;-69
2023/05/22 08:26:39;;;;;;;109.13;46.65;;;;;;;;;;5030145;28;20291;-69
2023/05/22 08:29:05;;;;;;;97.80;41.42;;;;;;;;;;5030539;28;20022;-69
2023/05/22 08:31:32;;;;;;;111.07;47.10;;;;;;;;;;5030385;28;20073;-69
2023/05/22 08:34:01;;;;;;;94.65;42.90;;;;;;;;;;5027765;28;20544;-69
2023/05/22 08:36:26;;;;;;;93.82;43.15;;;;;;;;;;5029035;28;20021;-69
2023/05/22 08:38:51;;;;;;;93.85;43.22;;;;;;;;;;5030855;28;20170;-69
2023/05/22 08:41:17;;;;;;;91.97;44.60;;;;;;;;;;5028421;28;20431;-69
2023/05/22 08:43:42;;;;;;;95.57;46.03;;;;;;;;;;5027452;28;20280;-69
2023/05/22 08:46:08;;;;;;;95.60;43.67;;;;;;;;;;5029235;28;20687;-69
2023/05/22 08:48:33;;;;;;;96.85;47.53;;;;;;;;;;5030149;28;20280;-69
2023/05/22 08:51:03;;;;;;;106.90;48.90;;;;;;;;;;5031551;28;20101;-69
2023/05/22 08:53:30;;;;;;;98.15;46.10;;;;;;;;;;5029590;28;20021;-69
2023/05/22 08:55:55;;;;;;;93.35;45.25;;;;;;;;;;5026096;28;20017;-69
2023/05/22 08:58:20;;;;;;;97.10;45.38;;;;;;;;;;5027930;28;20033;-69
2023/05/22 09:00:46;;;;;;;96.57;43.97;;;;;;;;;;5024958;28;20025;-69
2023/05/22 09:03:14;;;;;;;95.97;46.60;;;;;;;;;;5028417;28;20505;-69
2023/05/22 09:05:40;;;;;;;94.32;43.67;;;;;;;;;;5028333;28;20508;-69
2023/05/22 09:08:08;;;;;;;91.68;44.83;;;;;;;;;;5028052;28;20047;-69
2023/05/22 09:10:34;;;;;;;107.85;47.45;;;;;;;;;;5026678;28;20033;-69
2023/05/22 09:13:08;;;;;;;111.45;48.15;;;;;;;;;;5024448;28;20025;-69
2023/05/22 09:15:34;;;;;;;105.85;51.30;;;;;;;;;;5026567;28;20045;-69
2023/05/22 09:17:59;;;;;;;106.00;50.55;;;;;;;;;;5024909;28;20053;-69
2023/05/22 09:20:25;;;;;;;104.40;49.22;;;;;;;;;;5027960;28;20021;-69
2023/05/22 09:22:50;;;;;;;103.32;46.97;;;;;;;;;;5027080;28;20025;-69
2023/05/22 09:25:19;;;;;;;98.67;48.33;;;;;;;;;;5026483;28;20227;-69
2023/05/22 09:27:45;;;;;;;106.55;49.45;;;;;;;;;;5028058;28;20328;-69
2023/05/22 09:30:10;;;;;;;92.55;46.55;;;;;;;;;;5028608;28;20014;-69
2023/05/22 09:32:36;;;;;;;102.95;47.67;;;;;;;;;;5029625;28;20084;-69
2023/05/22 09:35:05;;;;;;;90.18;48.08;;;;;;;;;;5028449;28;20021;-69
2023/05/22 09:37:37;;;;;;;94.80;47.40;;;;;;;;;;5029136;28;20574;-69
2023/05/22 09:40:04;;;;;;;90.22;46.67;;;;;;;;;;5026600;28;20032;-69
2023/05/22 09:42:31;;;;;;;86.10;46.45;;;;;;;;;;5022693;28;20013;-69
2023/05/22 09:45:01;;;;;;;90.22;43.85;;;;;;;;;;5029280;28;20049;-69
2023/05/22 09:47:26;;;;;;;85.20;43.05;;;;;;;;;;5021381;28;20104;-69
2023/05/22 09:49:51;;;;;;;82.73;40.17;;;;;;;;;;5025524;28;20204;-69
2023/05/22 09:52:16;;;;;;;77.30;38.83;;;;;;;;;;5029515;28;20283;-69
2023/05/22 09:54:48;;;;;;;80.25;41.40;;;;;;;;;;5024651;28;20026;-69
2023/05/22 09:57:17;;;;;;;77.05;40.25;;;;;;;;;;5027387;28;20025;-69
2023/05/22 10:12:37;;;;;;;69.28;38.38;;;;;;;;;;5022869;28;20421;-69
2023/05/22 10:15:06;;;;;;;58.65;33.35;;;;;;;;;;5003697;28;20049;-70
2023/05/22 10:17:31;;;;;;;67.30;35.92;;;;;;;;;;5003550;28;20073;-70
2023/05/22 10:19:56;;;;;;;70.30;38.20;;;;;;;;;;5000784;28;20014;-69
2023/05/22 10:22:24;;;;;;;90.68;44.25;;;;;;;;;;5002441;28;20805;-69
2023/05/22 10:24:50;;;;;;;84.85;39.65;;;;;;;;;;5002910;28;20049;-69
2023/05/22 10:27:16;;;;;;;84.60;41.65;;;;;;;;;;4998885;28;20018;-70
2023/05/22 10:29:57;;;;;;;78.90;39.72;;;;;;;;;;5004400;28;20376;-70
2023/05/22 10:32:26;;;;;;;81.50;37.88;;;;;;;;;;4999352;28;20039;-70
2023/05/22 10:34:55;;;;;;;81.57;37.03;;;;;;;;;;5006992;28;20053;-70
2023/05/22 10:37:20;;;;;;;70.53;37.72;;;;;;;;;;5003325;28;20022;-69
2023/05/22 10:39:53;;;;;;;71.03;37.77;;;;;;;;;;5003770;28;20088;-69
2023/05/22 10:42:18;;;;;;;74.20;36.53;;;;;;;;;;5001859;28;20276;-69
2023/05/22 10:44:45;;;;;;;73.03;37.03;;;;;;;;;;4999695;28;20014;-69
2023/05/22 10:47:12;;;;;;;68.75;36.17;;;;;;;;;;5003441;28;20297;-69
2023/05/22 10:49:39;;;;;;;82.47;38.28;;;;;;;;;;5003273;28;20026;-69
2023/05/22 10:52:07;;;;;;;75.88;35.67;;;;;;;;;;5000894;28;20085;-69
2023/05/22 10:54:40;;;;;;;76.18;35.42;;;;;;;;;;5003640;28;20026;-69
2023/05/22 10:57:08;;;;;;;72.97;37.85;;;;;;;;;;4998907;28;20049;-69
2023/05/22 10:59:33;;;;;;;79.55;39.42;;;;;;;;;;4998425;28;20057;-69
2023/05/22 11:01:59;;;;;;;66.68;35.55;;;;;;;;;;5001315;28;20090;-69
2023/05/22 11:04:24;;;;;;;74.85;37.72;;;;;;;;;;5000041;28;20026;-69
2023/05/22 11:07:01;;;;;;;74.78;37.55;;;;;;;;;;4997934;28;20037;-71
2023/05/22 11:09:28;;;;;;;74.07;39.10;;;;;;;;;;5001333;28;20518;-71
2023/05/22 11:12:11;;;;;;;73.00;37.65;;;;;;;;;;4996468;28;20030;-70
2023/05/22 11:14:36;;;;;;;74.35;38.20;;;;;;;;;;4989379;28;20054;-70
2023/05/22 11:17:01;;;;;;;65.78;35.25;;;;;;;;;;4988103;28;20064;-70
2023/05/22 11:19:27;;;;;;;67.77;37.37;;;;;;;;;;4987072;28;20077;-70
2023/05/22 11:21:58;;;;;;;70.43;35.27;;;;;;;;;;4990155;28;20285;-70
2023/05/22 11:24:23;;;;;;;65.45;34.15;;;;;;;;;;4988051;28;20103;-70
2023/05/22 11:27:05;;;;;;;69.03;36.00;;;;;;;;;;4982483;28;20095;-70
2023/05/22 11:29:30;;;;;;;74.40;37.63;;;;;;;;;;4986165;28;20269;-70
2023/05/22 11:31:56;;;;;;;73.15;36.08;;;;;;;;;;4988583;28;20531;-70
2023/05/22 11:34:22;;;;;;;67.97;36.75;;;;;;;;;;4987723;28;20050;-70
2023/05/22 11:36:48;;;;;;;77.88;37.03;;;;;;;;;;4987923;28;20018;-70
2023/05/22 11:39:13;;;;;;;73.95;36.53;;;;;;;;;;4987492;28;20073;-70
2023/05/22 11:41:39;;;;;;;76.78;39.15;;;;;;;;;;4988324;28;20384;-70
2023/05/22 11:44:06;;;;;;;79.00;37.90;;;;;;;;;;4988239;28;20026;-70
2023/05/22 11:46:31;;;;;;;78.90;37.67;;;;;;;;;;4986293;28;20384;-70
2023/05/22 11:48:57;;;;;;;72.85;38.50;;;;;;;;;;4988175;28;20018;-70
2023/05/22 11:51:22;;;;;;;69.05;34.88;;;;;;;;;;4985714;28;20475;-70
2023/05/22 11:53:47;;;;;;;68.53;35.77;;;;;;;;;;4984717;28;20018;-70
2023/05/22 11:56:12;;;;;;;71.83;33.83;;;;;;;;;;4987529;28;20292;-70
2023/05/22 11:58:37;;;;;;;68.87;35.03;;;;;;;;;;4985856;28;20293;-70
2023/05/22 12:01:03;;;;;;;72.67;37.50;;;;;;;;;;4986574;28;20340;-70
2023/05/22 12:03:29;;;;;;;68.22;35.05;;;;;;;;;;4988187;28;20273;-70
2023/05/22 12:05:55;;;;;;;67.85;35.22;;;;;;;;;;4984749;28;20481;-69
2023/05/22 12:08:21;;;;;;;63.53;33.50;;;;;;;;;;4988110;28;20034;-69
2023/05/22 12:10:47;;;;;;;74.95;41.05;;;;;;;;;;4987648;28;20087;-69
2023/05/22 12:13:12;;;;;;;68.13;35.33;;;;;;;;;;4985633;28;20074;-69
2023/05/22 12:15:38;;;;;;;71.17;34.43;;;;;;;;;;4987920;28;20026;-69
2023/05/22 12:18:06;;;;;;;64.05;34.17;;;;;;;;;;4986639;28;20660;-69
2023/05/22 12:20:31;;;;;;;68.30;35.75;;;;;;;;;;4986040;28;20018;-69
2023/05/22 12:22:57;;;;;;;70.78;36.58;;;;;;;;;;4986287;28;20021;-69
2023/05/22 12:25:23;;;;;;;67.60;37.22;;;;;;;;;;4982341;28;20019;-69
2023/05/22 12:27:49;;;;;;;68.00;38.17;;;;;;;;;;4985214;28;20014;-69
2023/05/22 12:30:15;;;;;;;73.93;36.17;;;;;;;;;;4983952;28;20076;-69
2023/05/22 12:32:45;;;;;;;67.32;36.28;;;;;;;;;;4983736;28;20050;-69
2023/05/22 12:35:13;;;;;;;70.25;35.22;;;;;;;;;;4984413;28;20546;-69
2023/05/22 12:37:39;;;;;;;70.43;34.53;;;;;;;;;;4979891;28;20038;-69
2023/05/22 12:40:04;;;;;;;69.27;34.47;;;;;;;;;;4982534;28;20026;-69
2023/05/22 12:42:30;;;;;;;79.55;37.30;;;;;;;;;;4986354;28;20277;-69
2023/05/22 12:44:55;;;;;;;75.65;36.00;;;;;;;;;;4983667;28;20045;-69
2023/05/22 12:47:22;;;;;;;64.13;36.25;;;;;;;;;;4983135;28;20023;-69
2023/05/22 12:49:47;;;;;;;66.93;35.20;;;;;;;;;;4985094;28;20033;-69
2023/05/22 12:52:12;;;;;;;65.90;35.05;;;;;;;;;;4983696;28;20026;-69
2023/05/22 12:54:37;;;;;;;64.57;35.93;;;;;;;;;;4985200;28;20030;-69
2023/05/22 12:57:03;;;;;;;76.53;35.53;;;;;;;;;;4985041;28;20293;-69
2023/05/22 12:59:29;;;;;;;64.50;34.33;;;;;;;;;;4986796;28;20100;-69
2023/05/22 13:01:56;;;;;;;76.80;38.65;;;;;;;;;;4984182;28;20105;-70
2023/05/22 13:04:21;;;;;;;76.57;35.90;;;;;;;;;;4987299;28;20026;-70
2023/05/22 13:06:46;;;;;;;73.20;35.10;;;;;;;;;;4984246;28;20253;-70
2023/05/22 13:09:15;;;;;;;70.03;35.27;;;;;;;;;;4987504;28;20015;-70
2023/05/22 13:11:40;;;;;;;65.55;34.78;;;;;;;;;;4985603;28;20054;-70
2023/05/22 13:14:05;;;;;;;74.83;36.67;;;;;;;;;;4985093;28;20034;-70
2023/05/22 13:16:31;;;;;;;80.87;35.63;;;;;;;;;;4986451;28;20018;-70
2023/05/22 13:18:56;;;;;;;70.57;36.60;;;;;;;;;;4980630;28;20037;-70
2023/05/22 13:21:21;;;;;;;73.23;35.83;;;;;;;;;;4987584;28;20022;-70
2023/05/22 13:23:46;;;;;;;67.50;34.27;;;;;;;;;;4984212;28;20755;-70
2023/05/22 13:26:11;;;;;;;68.57;34.43;;;;;;;;;;4984165;28;20023;-70
2023/05/22 13:28:36;;;;;;;68.30;33.73;;;;;;;;;;4982485;28;20274;-70
2023/05/22 13:31:02;;;;;;;64.00;33.33;;;;;;;;;;4981430;28;21607;-70
2023/05/22 13:33:27;;;;;;;66.57;31.60;;;;;;;;;;4984799;28;20308;-70
2023/05/22 13:35:52;;;;;;;64.00;31.83;;;;;;;;;;4984430;28;20022;-70
2023/05/22 13:38:17;;;;;;;67.97;32.65;;;;;;;;;;4979895;28;20045;-70
2023/05/22 13:40:43;;;;;;;65.23;31.67;;;;;;;;;;4982451;28;20389;-70
2023/05/22 13:43:08;;;;;;;63.00;31.37;;;;;;;;;;4986217;28;20270;-70
2023/05/22 13:45:33;;;;;;;74.20;35.15;;;;;;;;;;4976561;28;20060;-70
2023/05/22 13:47:58;;;;;;;60.87;32.07;;;;;;;;;;4981173;28;20435;-70
2023/05/22 13:50:23;;;;;;;67.23;32.27;;;;;;;;;;4985101;28;20324;-70
2023/05/22 13:52:49;;;;;;;62.77;32.50;;;;;;;;;;4984497;28;20027;-70
2023/05/22 13:55:14;;;;;;;67.75;32.28;;;;;;;;;;4983290;28;20023;-70
2023/05/22 13:57:39;;;;;;;70.22;32.17;;;;;;;;;;4979066;28;20057;-70
2023/05/22 14:00:05;;;;;;;63.03;32.37;;;;;;;;;;4983918;28;20030;-70
2023/05/22 14:02:30;;;;;;;76.78;35.00;;;;;;;;;;4984274;28;20424;-70
2023/05/22 14:04:55;;;;;;;73.33;34.57;;;;;;;;;;4985739;28;20030;-71
2023/05/22 14:07:20;;;;;;;62.63;33.63;;;;;;;;;;4984666;28;20137;-71
2023/05/22 14:09:46;;;;;;;66.87;34.13;;;;;;;;;;4984278;28;20098;-70
2023/05/22 14:12:11;;;;;;;58.70;31.87;;;;;;;;;;4985248;28;20285;-70
2023/05/22 14:14:36;;;;;;;77.65;35.95;;;;;;;;;;4985570;28;20026;-70
2023/05/22 14:17:02;;;;;;;79.53;39.73;;;;;;;;;;4984710;28;20113;-70
2023/05/22 14:19:27;;;;;;;65.85;34.83;;;;;;;;;;4986312;28;20487;-70
2023/05/22 14:21:52;;;;;;;77.20;37.03;;;;;;;;;;4985374;28;20473;-70
2023/05/22 14:24:17;;;;;;;72.33;33.67;;;;;;;;;;4985086;28;20080;-70